CheckWX is a tool to help pilots better visualize weather data.  It is not intended as a substitute for an official pre-flight weather briefing.

16:01:00 UTC

KHVS METAR
Hartsville Regional Airport
Hartsville, South Carolina, USA
Current

26 mins ago

KHVS 141535Z AUTO 24006KT 10SM OVC004 08/08 A2960 RMK AO2 LTG DSNT E AND W
Observed
Dec-14 @ 15:35 UTC
Wind
  • 240° at 6 KTS
Visibility
10 SM
Flight Rules
LIFR
Cloud Levels
  • Overcast at 400' AGL
Temperature
C / 46°F
Dewpoint
C / 46°F
Humidity
100%
Altimeter
29.6" Hg
Pressure
1002.42 hPa
Previous

46 mins ago

KHVS 141515Z AUTO 24007G13KT 10SM OVC004 08/08 A2961 RMK AO2 LTG DSNT E AND SE
Observed
Dec-14 @ 15:15 UTC
Wind
  • 240° at 7 KTS
  • Gusting to 13 KTS
Visibility
10 SM
Flight Rules
LIFR
Cloud Levels
  • Overcast at 400' AGL
Temperature
C / 46°F
Dewpoint
C / 46°F
Humidity
100%
Altimeter
29.61" Hg
Pressure
1002.72 hPa
Previous

1 hour ago

KHVS 141455Z AUTO VRB06KT 230V290 10SM OVC004 08/07 A2961 RMK AO2 LTG DSNT E
Observed
Dec-14 @ 14:55 UTC
Wind
  • Variable at 6 KTS
Visibility
10 SM
Flight Rules
LIFR
Cloud Levels
  • Overcast at 400' AGL
Temperature
C / 46°F
Dewpoint
C / 45°F
Humidity
93%
Altimeter
29.61" Hg
Pressure
1002.72 hPa